sensor_id;sensor_type;location;lat;lon;timestamp;P1;durP1;ratioP1;P2;durP2;ratioP2
44102;SDS011;29769;42.178;24.742;2023-01-28T00:02:24;2.90;;;2.70;;
44102;SDS011;29769;42.178;24.742;2023-01-28T00:05:09;3.40;;;3.10;;
44102;SDS011;29769;42.178;24.742;2023-01-28T00:07:54;3.42;;;2.97;;
44102;SDS011;29769;42.178;24.742;2023-01-28T00:10:41;3.38;;;3.08;;
44102;SDS011;29769;42.178;24.742;2023-01-28T00:13:28;3.40;;;3.10;;
44102;SDS011;29769;42.178;24.742;2023-01-28T00:16:14;3.50;;;3.17;;
44102;SDS011;29769;42.178;24.742;2023-01-28T00:19:00;5.75;;;3.50;;
44102;SDS011;29769;42.178;24.742;2023-01-28T00:21:44;3.75;;;3.35;;
44102;SDS011;29769;42.178;24.742;2023-01-28T00:24:31;4.55;;;2.97;;
44102;SDS011;29769;42.178;24.742;2023-01-28T00:27:16;4.13;;;2.88;;
44102;SDS011;29769;42.178;24.742;2023-01-28T00:30:01;3.25;;;2.95;;
44102;SDS011;29769;42.178;24.742;2023-01-28T00:32:46;3.72;;;2.90;;
44102;SDS011;29769;42.178;24.742;2023-01-28T00:35:30;2.97;;;2.67;;
44102;SDS011;29769;42.178;24.742;2023-01-28T00:38:15;3.67;;;3.20;;
44102;SDS011;29769;42.178;24.742;2023-01-28T00:41:13;3.67;;;3.05;;
44102;SDS011;29769;42.178;24.742;2023-01-28T00:43:59;6.32;;;3.53;;
44102;SDS011;29769;42.178;24.742;2023-01-28T00:46:44;4.22;;;3.67;;
44102;SDS011;29769;42.178;24.742;2023-01-28T00:49:29;3.42;;;3.13;;
44102;SDS011;29769;42.178;24.742;2023-01-28T00:52:14;5.47;;;3.85;;
44102;SDS011;29769;42.178;24.742;2023-01-28T00:54:59;6.15;;;3.53;;
44102;SDS011;29769;42.178;24.742;2023-01-28T00:57:44;4.70;;;3.65;;
44102;SDS011;29769;42.178;24.742;2023-01-28T01:00:29;4.97;;;4.28;;
44102;SDS011;29769;42.178;24.742;2023-01-28T01:03:14;4.40;;;4.00;;
44102;SDS011;29769;42.178;24.742;2023-01-28T01:05:59;6.10;;;3.75;;
44102;SDS011;29769;42.178;24.742;2023-01-28T01:08:43;4.05;;;3.65;;
44102;SDS011;29769;42.178;24.742;2023-01-28T01:11:35;4.20;;;3.65;;
44102;SDS011;29769;42.178;24.742;2023-01-28T01:14:20;4.07;;;3.67;;
44102;SDS011;29769;42.178;24.742;2023-01-28T01:17:05;4.68;;;3.60;;
44102;SDS011;29769;42.178;24.742;2023-01-28T01:19:49;4.13;;;3.53;;
44102;SDS011;29769;42.178;24.742;2023-01-28T01:22:35;4.38;;;3.58;;
44102;SDS011;29769;42.178;24.742;2023-01-28T01:25:20;5.55;;;3.70;;
44102;SDS011;29769;42.178;24.742;2023-01-28T01:28:05;4.53;;;3.88;;
44102;SDS011;29769;42.178;24.742;2023-01-28T01:30:57;3.47;;;3.17;;
44102;SDS011;29769;42.178;24.742;2023-01-28T01:33:44;5.03;;;3.70;;
44102;SDS011;29769;42.178;24.742;2023-01-28T01:36:30;5.53;;;3.92;;
44102;SDS011;29769;42.178;24.742;2023-01-28T01:39:15;4.32;;;3.72;;
44102;SDS011;29769;42.178;24.742;2023-01-28T01:42:00;4.18;;;3.20;;
44102;SDS011;29769;42.178;24.742;2023-01-28T01:44:53;3.78;;;3.40;;
44102;SDS011;29769;42.178;24.742;2023-01-28T01:47:56;6.00;;;3.80;;
44102;SDS011;29769;42.178;24.742;2023-01-28T01:50:56;4.10;;;3.38;;
44102;SDS011;29769;42.178;24.742;2023-01-28T01:53:45;4.72;;;4.00;;
44102;SDS011;29769;42.178;24.742;2023-01-28T01:56:35;5.88;;;3.90;;
44102;SDS011;29769;42.178;24.742;2023-01-28T01:59:24;4.90;;;3.67;;
44102;SDS011;29769;42.178;24.742;2023-01-28T02:02:12;4.47;;;3.55;;
44102;SDS011;29769;42.178;24.742;2023-01-28T02:04:57;4.15;;;3.60;;
44102;SDS011;29769;42.178;24.742;2023-01-28T02:07:42;4.70;;;4.00;;
44102;SDS011;29769;42.178;24.742;2023-01-28T02:10:29;5.88;;;3.97;;
44102;SDS011;29769;42.178;24.742;2023-01-28T02:13:14;4.47;;;3.45;;
44102;SDS011;29769;42.178;24.742;2023-01-28T02:16:01;5.25;;;3.88;;
44102;SDS011;29769;42.178;24.742;2023-01-28T02:18:48;4.28;;;3.28;;
44102;SDS011;29769;42.178;24.742;2023-01-28T02:24:48;4.50;;;3.10;;
44102;SDS011;29769;42.178;24.742;2023-01-28T02:37:37;3.30;;;2.95;;
44102;SDS011;29769;42.178;24.742;2023-01-28T02:40:29;3.63;;;3.30;;
44102;SDS011;29769;42.178;24.742;2023-01-28T02:43:39;4.40;;;3.15;;
44102;SDS011;29769;42.178;24.742;2023-01-28T02:49:39;3.92;;;3.38;;
44102;SDS011;29769;42.178;24.742;2023-01-28T02:56:06;3.92;;;3.13;;
44102;SDS011;29769;42.178;24.742;2023-01-28T02:59:02;3.35;;;3.05;;
44102;SDS011;29769;42.178;24.742;2023-01-28T03:02:28;3.90;;;2.85;;
44102;SDS011;29769;42.178;24.742;2023-01-28T03:05:22;3.25;;;2.70;;
44102;SDS011;29769;42.178;24.742;2023-01-28T03:08:13;4.70;;;2.90;;
44102;SDS011;29769;42.178;24.742;2023-01-28T03:11:32;3.10;;;2.70;;
44102;SDS011;29769;42.178;24.742;2023-01-28T03:14:38;3.13;;;2.70;;
44102;SDS011;29769;42.178;24.742;2023-01-28T03:17:44;2.60;;;2.40;;
44102;SDS011;29769;42.178;24.742;2023-01-28T03:24:20;3.92;;;2.70;;
44102;SDS011;29769;42.178;24.742;2023-01-28T03:27:32;3.22;;;2.90;;
44102;SDS011;29769;42.178;24.742;2023-01-28T03:33:56;3.83;;;2.80;;
44102;SDS011;29769;42.178;24.742;2023-01-28T03:37:02;3.13;;;2.60;;
44102;SDS011;29769;42.178;24.742;2023-01-28T03:40:04;3.08;;;2.65;;
44102;SDS011;29769;42.178;24.742;2023-01-28T03:42:51;2.50;;;2.30;;
44102;SDS011;29769;42.178;24.742;2023-01-28T03:45:48;3.30;;;2.42;;
44102;SDS011;29769;42.178;24.742;2023-01-28T03:48:35;2.95;;;2.65;;
44102;SDS011;29769;42.178;24.742;2023-01-28T03:51:23;5.65;;;3.05;;
44102;SDS011;29769;42.178;24.742;2023-01-28T03:54:08;2.42;;;2.22;;
44102;SDS011;29769;42.178;24.742;2023-01-28T03:56:53;2.70;;;2.47;;
44102;SDS011;29769;42.178;24.742;2023-01-28T03:59:38;2.42;;;2.22;;
44102;SDS011;29769;42.178;24.742;2023-01-28T04:02:23;3.13;;;2.83;;
44102;SDS011;29769;42.178;24.742;2023-01-28T04:05:10;2.75;;;2.35;;
44102;SDS011;29769;42.178;24.742;2023-01-28T04:08:02;3.22;;;2.70;;
44102;SDS011;29769;42.178;24.742;2023-01-28T04:11:06;4.10;;;2.83;;
44102;SDS011;29769;42.178;24.742;2023-01-28T04:14:02;2.78;;;2.55;;
44102;SDS011;29769;42.178;24.742;2023-01-28T04:17:16;3.33;;;2.63;;
44102;SDS011;29769;42.178;24.742;2023-01-28T04:20:03;3.65;;;2.28;;
44102;SDS011;29769;42.178;24.742;2023-01-28T04:22:48;2.92;;;2.65;;
44102;SDS011;29769;42.178;24.742;2023-01-28T04:25:33;3.88;;;2.70;;
44102;SDS011;29769;42.178;24.742;2023-01-28T04:31:03;2.72;;;2.25;;
44102;SDS011;29769;42.178;24.742;2023-01-28T04:34:11;2.75;;;2.55;;
44102;SDS011;29769;42.178;24.742;2023-01-28T04:37:22;3.67;;;2.60;;
44102;SDS011;29769;42.178;24.742;2023-01-28T04:40:13;3.25;;;2.95;;
44102;SDS011;29769;42.178;24.742;2023-01-28T04:43:01;3.42;;;3.00;;
44102;SDS011;29769;42.178;24.742;2023-01-28T04:46:09;2.92;;;2.63;;
44102;SDS011;29769;42.178;24.742;2023-01-28T04:49:13;3.33;;;2.83;;
44102;SDS011;29769;42.178;24.742;2023-01-28T04:52:05;3.10;;;2.60;;
44102;SDS011;29769;42.178;24.742;2023-01-28T04:55:17;4.50;;;3.30;;
44102;SDS011;29769;42.178;24.742;2023-01-28T04:58:05;4.00;;;2.65;;
44102;SDS011;29769;42.178;24.742;2023-01-28T05:00:55;3.28;;;2.60;;
44102;SDS011;29769;42.178;24.742;2023-01-28T05:03:42;3.95;;;2.97;;
44102;SDS011;29769;42.178;24.742;2023-01-28T05:06:29;3.75;;;3.33;;
44102;SDS011;29769;42.178;24.742;2023-01-28T05:09:21;3.95;;;3.30;;
44102;SDS011;29769;42.178;24.742;2023-01-28T05:12:09;4.25;;;2.92;;
44102;SDS011;29769;42.178;24.742;2023-01-28T05:14:55;5.40;;;3.30;;
44102;SDS011;29769;42.178;24.742;2023-01-28T05:17:40;4.00;;;3.28;;
44102;SDS011;29769;42.178;24.742;2023-01-28T05:20:27;5.88;;;2.78;;
44102;SDS011;29769;42.178;24.742;2023-01-28T05:23:14;4.35;;;3.00;;
44102;SDS011;29769;42.178;24.742;2023-01-28T05:26:12;3.53;;;3.20;;
44102;SDS011;29769;42.178;24.742;2023-01-28T05:28:57;3.70;;;2.88;;
44102;SDS011;29769;42.178;24.742;2023-01-28T05:31:42;3.47;;;2.85;;
44102;SDS011;29769;42.178;24.742;2023-01-28T05:34:27;3.65;;;3.22;;
44102;SDS011;29769;42.178;24.742;2023-01-28T05:37:13;4.22;;;3.13;;
44102;SDS011;29769;42.178;24.742;2023-01-28T05:39:58;4.20;;;3.30;;
44102;SDS011;29769;42.178;24.742;2023-01-28T05:42:43;4.07;;;3.15;;
44102;SDS011;29769;42.178;24.742;2023-01-28T05:45:39;5.18;;;3.40;;
44102;SDS011;29769;42.178;24.742;2023-01-28T05:48:35;4.57;;;3.40;;
44102;SDS011;29769;42.178;24.742;2023-01-28T05:51:52;5.32;;;3.10;;
44102;SDS011;29769;42.178;24.742;2023-01-28T05:54:39;4.28;;;3.22;;
44102;SDS011;29769;42.178;24.742;2023-01-28T05:57:24;3.95;;;2.85;;
44102;SDS011;29769;42.178;24.742;2023-01-28T06:00:09;3.53;;;2.90;;
44102;SDS011;29769;42.178;24.742;2023-01-28T06:03:02;4.82;;;3.67;;
44102;SDS011;29769;42.178;24.742;2023-01-28T06:05:47;4.28;;;3.22;;
44102;SDS011;29769;42.178;24.742;2023-01-28T06:11:17;4.00;;;3.10;;
44102;SDS011;29769;42.178;24.742;2023-01-28T06:14:02;4.18;;;3.15;;
44102;SDS011;29769;42.178;24.742;2023-01-28T06:17:16;4.97;;;3.65;;
44102;SDS011;29769;42.178;24.742;2023-01-28T06:20:18;6.25;;;4.25;;
44102;SDS011;29769;42.178;24.742;2023-01-28T06:23:05;5.97;;;3.97;;
44102;SDS011;29769;42.178;24.742;2023-01-28T06:25:54;4.40;;;3.65;;
44102;SDS011;29769;42.178;24.742;2023-01-28T06:28:39;5.50;;;4.63;;
44102;SDS011;29769;42.178;24.742;2023-01-28T06:31:24;4.38;;;3.35;;
44102;SDS011;29769;42.178;24.742;2023-01-28T06:34:09;6.22;;;4.28;;
44102;SDS011;29769;42.178;24.742;2023-01-28T06:36:54;17.33;;;6.43;;
44102;SDS011;29769;42.178;24.742;2023-01-28T06:39:39;5.88;;;4.28;;
44102;SDS011;29769;42.178;24.742;2023-01-28T06:42:24;5.60;;;4.28;;
44102;SDS011;29769;42.178;24.742;2023-01-28T06:45:08;4.93;;;4.05;;
44102;SDS011;29769;42.178;24.742;2023-01-28T06:47:54;6.80;;;4.35;;
44102;SDS011;29769;42.178;24.742;2023-01-28T06:50:39;7.03;;;3.75;;
44102;SDS011;29769;42.178;24.742;2023-01-28T06:53:23;5.75;;;4.43;;
44102;SDS011;29769;42.178;24.742;2023-01-28T06:56:08;4.03;;;3.55;;
44102;SDS011;29769;42.178;24.742;2023-01-28T06:58:53;7.60;;;3.28;;
44102;SDS011;29769;42.178;24.742;2023-01-28T07:01:38;4.53;;;3.67;;
44102;SDS011;29769;42.178;24.742;2023-01-28T07:04:23;4.53;;;3.30;;
44102;SDS011;29769;42.178;24.742;2023-01-28T07:07:08;4.10;;;3.50;;
44102;SDS011;29769;42.178;24.742;2023-01-28T07:09:53;4.22;;;3.75;;
44102;SDS011;29769;42.178;24.742;2023-01-28T07:12:38;4.30;;;3.67;;
44102;SDS011;29769;42.178;24.742;2023-01-28T07:18:07;5.65;;;3.55;;
44102;SDS011;29769;42.178;24.742;2023-01-28T07:20:52;7.22;;;3.53;;
44102;SDS011;29769;42.178;24.742;2023-01-28T07:23:37;3.42;;;3.10;;
44102;SDS011;29769;42.178;24.742;2023-01-28T07:26:23;7.63;;;3.38;;
44102;SDS011;29769;42.178;24.742;2023-01-28T07:29:08;5.13;;;3.42;;
44102;SDS011;29769;42.178;24.742;2023-01-28T07:31:52;4.28;;;3.45;;
44102;SDS011;29769;42.178;24.742;2023-01-28T07:34:37;8.98;;;3.53;;
44102;SDS011;29769;42.178;24.742;2023-01-28T07:37:25;5.70;;;3.10;;
44102;SDS011;29769;42.178;24.742;2023-01-28T07:40:10;9.63;;;3.20;;
44102;SDS011;29769;42.178;24.742;2023-01-28T07:42:55;3.80;;;3.35;;
44102;SDS011;29769;42.178;24.742;2023-01-28T07:45:40;5.65;;;3.85;;
44102;SDS011;29769;42.178;24.742;2023-01-28T07:48:25;4.05;;;3.50;;
44102;SDS011;29769;42.178;24.742;2023-01-28T07:51:10;3.67;;;3.03;;
44102;SDS011;29769;42.178;24.742;2023-01-28T07:56:40;3.28;;;2.97;;
44102;SDS011;29769;42.178;24.742;2023-01-28T07:59:25;4.38;;;3.22;;
44102;SDS011;29769;42.178;24.742;2023-01-28T08:02:10;4.10;;;3.10;;
44102;SDS011;29769;42.178;24.742;2023-01-28T08:04:56;6.25;;;2.92;;
44102;SDS011;29769;42.178;24.742;2023-01-28T08:07:43;3.53;;;2.58;;
44102;SDS011;29769;42.178;24.742;2023-01-28T08:10:29;2.80;;;2.60;;
44102;SDS011;29769;42.178;24.742;2023-01-28T08:13:14;2.60;;;2.40;;
44102;SDS011;29769;42.178;24.742;2023-01-28T08:16:00;6.13;;;2.47;;
44102;SDS011;29769;42.178;24.742;2023-01-28T08:18:44;3.03;;;2.33;;
44102;SDS011;29769;42.178;24.742;2023-01-28T08:21:29;2.72;;;2.45;;
44102;SDS011;29769;42.178;24.742;2023-01-28T08:24:14;3.35;;;2.30;;
44102;SDS011;29769;42.178;24.742;2023-01-28T08:26:59;2.42;;;2.22;;
44102;SDS011;29769;42.178;24.742;2023-01-28T08:29:44;5.78;;;2.50;;
44102;SDS011;29769;42.178;24.742;2023-01-28T08:32:29;2.78;;;2.40;;
44102;SDS011;29769;42.178;24.742;2023-01-28T08:35:14;2.50;;;2.30;;
44102;SDS011;29769;42.178;24.742;2023-01-28T08:37:59;2.38;;;2.15;;
44102;SDS011;29769;42.178;24.742;2023-01-28T08:40:45;2.72;;;2.40;;
44102;SDS011;29769;42.178;24.742;2023-01-28T08:43:31;2.20;;;2.00;;
44102;SDS011;29769;42.178;24.742;2023-01-28T08:46:16;2.63;;;2.40;;
44102;SDS011;29769;42.178;24.742;2023-01-28T08:49:00;2.55;;;2.10;;
44102;SDS011;29769;42.178;24.742;2023-01-28T08:51:45;2.40;;;2.20;;
44102;SDS011;29769;42.178;24.742;2023-01-28T08:54:31;2.20;;;2.10;;
44102;SDS011;29769;42.178;24.742;2023-01-28T08:57:16;2.30;;;2.10;;
44102;SDS011;29769;42.178;24.742;2023-01-28T09:00:01;2.47;;;2.28;;
44102;SDS011;29769;42.178;24.742;2023-01-28T09:02:46;2.97;;;2.13;;
44102;SDS011;29769;42.178;24.742;2023-01-28T09:05:35;3.38;;;2.70;;
44102;SDS011;29769;42.178;24.742;2023-01-28T09:08:21;3.13;;;2.25;;
44102;SDS011;29769;42.178;24.742;2023-01-28T09:11:05;3.65;;;2.47;;
44102;SDS011;29769;42.178;24.742;2023-01-28T09:16:35;2.47;;;2.10;;
44102;SDS011;29769;42.178;24.742;2023-01-28T09:19:20;2.60;;;2.40;;
44102;SDS011;29769;42.178;24.742;2023-01-28T09:22:04;2.28;;;2.08;;
44102;SDS011;29769;42.178;24.742;2023-01-28T09:24:49;2.65;;;2.13;;
44102;SDS011;29769;42.178;24.742;2023-01-28T09:27:34;2.50;;;2.30;;
44102;SDS011;29769;42.178;24.742;2023-01-28T09:30:19;2.13;;;1.98;;
44102;SDS011;29769;42.178;24.742;2023-01-28T09:33:04;1.80;;;1.70;;
44102;SDS011;29769;42.178;24.742;2023-01-28T09:35:50;1.80;;;1.70;;
44102;SDS011;29769;42.178;24.742;2023-01-28T09:38:35;2.40;;;2.20;;
44102;SDS011;29769;42.178;24.742;2023-01-28T09:47:23;2.30;;;2.10;;
44102;SDS011;29769;42.178;24.742;2023-01-28T09:50:23;2.92;;;2.25;;
44102;SDS011;29769;42.178;24.742;2023-01-28T09:56:21;2.55;;;2.35;;
44102;SDS011;29769;42.178;24.742;2023-01-28T09:59:15;2.50;;;2.30;;
44102;SDS011;29769;42.178;24.742;2023-01-28T10:17:29;1.92;;;1.77;;
44102;SDS011;29769;42.178;24.742;2023-01-28T10:20:20;2.25;;;2.08;;
44102;SDS011;29769;42.178;24.742;2023-01-28T10:26:14;4.00;;;2.20;;
44102;SDS011;29769;42.178;24.742;2023-01-28T10:29:11;2.58;;;2.38;;
44102;SDS011;29769;42.178;24.742;2023-01-28T10:32:03;2.40;;;2.20;;
44102;SDS011;29769;42.178;24.742;2023-01-28T10:34:56;3.03;;;2.72;;
44102;SDS011;29769;42.178;24.742;2023-01-28T10:37:47;3.53;;;2.38;;
44102;SDS011;29769;42.178;24.742;2023-01-28T10:40:33;2.10;;;2.00;;
44102;SDS011;29769;42.178;24.742;2023-01-28T10:43:20;2.80;;;2.40;;
44102;SDS011;29769;42.178;24.742;2023-01-28T10:49:18;4.55;;;3.08;;
44102;SDS011;29769;42.178;24.742;2023-01-28T10:52:14;2.55;;;2.35;;
44102;SDS011;29769;42.178;24.742;2023-01-28T10:55:03;2.88;;;2.35;;
44102;SDS011;29769;42.178;24.742;2023-01-28T10:57:49;2.75;;;2.53;;
44102;SDS011;29769;42.178;24.742;2023-01-28T11:00:35;2.88;;;2.58;;
44102;SDS011;29769;42.178;24.742;2023-01-28T11:03:22;3.20;;;2.90;;
44102;SDS011;29769;42.178;24.742;2023-01-28T11:06:17;3.55;;;2.85;;
44102;SDS011;29769;42.178;24.742;2023-01-28T11:09:25;2.92;;;2.70;;
44102;SDS011;29769;42.178;24.742;2023-01-28T11:12:22;3.15;;;2.85;;
44102;SDS011;29769;42.178;24.742;2023-01-28T11:15:15;2.38;;;2.20;;
44102;SDS011;29769;42.178;24.742;2023-01-28T11:18:05;2.70;;;2.47;;
44102;SDS011;29769;42.178;24.742;2023-01-28T11:21:02;4.50;;;2.67;;
44102;SDS011;29769;42.178;24.742;2023-01-28T11:23:58;2.47;;;2.28;;
44102;SDS011;29769;42.178;24.742;2023-01-28T11:26:44;2.25;;;2.05;;
44102;SDS011;29769;42.178;24.742;2023-01-28T11:29:33;2.67;;;2.00;;
44102;SDS011;29769;42.178;24.742;2023-01-28T11:32:24;2.22;;;2.03;;
44102;SDS011;29769;42.178;24.742;2023-01-28T11:35:22;4.65;;;2.50;;
44102;SDS011;29769;42.178;24.742;2023-01-28T11:38:18;6.10;;;2.90;;
44102;SDS011;29769;42.178;24.742;2023-01-28T11:41:05;3.42;;;2.58;;
44102;SDS011;29769;42.178;24.742;2023-01-28T11:43:50;6.43;;;2.60;;
44102;SDS011;29769;42.178;24.742;2023-01-28T11:52:37;2.50;;;2.30;;
44102;SDS011;29769;42.178;24.742;2023-01-28T12:07:34;7.55;;;4.05;;
44102;SDS011;29769;42.178;24.742;2023-01-28T12:16:51;2.70;;;2.50;;
44102;SDS011;29769;42.178;24.742;2023-01-28T12:41:43;6.55;;;3.30;;
44102;SDS011;29769;42.178;24.742;2023-01-28T12:44:32;3.63;;;3.33;;
44102;SDS011;29769;42.178;24.742;2023-01-28T12:47:36;5.65;;;3.90;;
44102;SDS011;29769;42.178;24.742;2023-01-28T12:50:24;4.68;;;3.65;;
44102;SDS011;29769;42.178;24.742;2023-01-28T12:53:24;7.70;;;3.70;;
44102;SDS011;29769;42.178;24.742;2023-01-28T12:56:32;3.58;;;3.28;;
44102;SDS011;29769;42.178;24.742;2023-01-28T12:59:21;3.80;;;3.50;;
44102;SDS011;29769;42.178;24.742;2023-01-28T13:08:03;5.35;;;4.32;;
44102;SDS011;29769;42.178;24.742;2023-01-28T13:10:55;6.00;;;4.20;;
44102;SDS011;29769;42.178;24.742;2023-01-28T13:13:42;4.97;;;4.13;;
44102;SDS011;29769;42.178;24.742;2023-01-28T13:16:29;6.38;;;4.70;;
44102;SDS011;29769;42.178;24.742;2023-01-28T13:22:09;5.70;;;5.10;;
44102;SDS011;29769;42.178;24.742;2023-01-28T13:28:21;6.05;;;4.70;;
44102;SDS011;29769;42.178;24.742;2023-01-28T13:31:20;9.27;;;4.97;;
44102;SDS011;29769;42.178;24.742;2023-01-28T13:34:08;4.40;;;3.92;;
44102;SDS011;29769;42.178;24.742;2023-01-28T13:49:14;6.22;;;4.88;;
44102;SDS011;29769;42.178;24.742;2023-01-28T14:10:22;4.63;;;3.95;;
44102;SDS011;29769;42.178;24.742;2023-01-28T14:19:25;7.38;;;4.43;;
44102;SDS011;29769;42.178;24.742;2023-01-28T14:22:16;7.05;;;4.28;;
44102;SDS011;29769;42.178;24.742;2023-01-28T14:25:02;4.50;;;4.10;;
44102;SDS011;29769;42.178;24.742;2023-01-28T14:27:49;4.43;;;3.75;;
44102;SDS011;29769;42.178;24.742;2023-01-28T14:30:46;4.80;;;4.30;;
44102;SDS011;29769;42.178;24.742;2023-01-28T14:33:54;5.80;;;5.03;;
44102;SDS011;29769;42.178;24.742;2023-01-28T14:36:48;6.72;;;5.20;;
44102;SDS011;29769;42.178;24.742;2023-01-28T14:45:32;7.40;;;5.82;;
44102;SDS011;29769;42.178;24.742;2023-01-28T14:51:24;10.15;;;6.57;;
44102;SDS011;29769;42.178;24.742;2023-01-28T14:58:03;10.60;;;7.68;;
44102;SDS011;29769;42.178;24.742;2023-01-28T15:00:57;9.02;;;6.95;;
44102;SDS011;29769;42.178;24.742;2023-01-28T15:03:44;8.43;;;6.70;;
44102;SDS011;29769;42.178;24.742;2023-01-28T15:06:33;10.18;;;7.00;;
44102;SDS011;29769;42.178;24.742;2023-01-28T15:09:20;9.43;;;7.00;;
44102;SDS011;29769;42.178;24.742;2023-01-28T15:12:05;12.25;;;7.43;;
44102;SDS011;29769;42.178;24.742;2023-01-28T15:14:51;9.43;;;6.88;;
44102;SDS011;29769;42.178;24.742;2023-01-28T15:17:36;11.65;;;7.05;;
44102;SDS011;29769;42.178;24.742;2023-01-28T15:23:07;9.05;;;6.85;;
44102;SDS011;29769;42.178;24.742;2023-01-28T15:25:52;8.30;;;6.65;;
44102;SDS011;29769;42.178;24.742;2023-01-28T15:28:38;7.80;;;5.97;;
44102;SDS011;29769;42.178;24.742;2023-01-28T15:31:25;8.75;;;6.45;;
44102;SDS011;29769;42.178;24.742;2023-01-28T15:34:14;8.18;;;6.97;;
44102;SDS011;29769;42.178;24.742;2023-01-28T15:37:01;10.50;;;7.05;;
44102;SDS011;29769;42.178;24.742;2023-01-28T15:39:46;11.75;;;7.10;;
44102;SDS011;29769;42.178;24.742;2023-01-28T15:42:33;8.20;;;7.05;;
44102;SDS011;29769;42.178;24.742;2023-01-28T15:45:19;11.18;;;8.40;;
44102;SDS011;29769;42.178;24.742;2023-01-28T15:48:06;12.90;;;8.32;;
44102;SDS011;29769;42.178;24.742;2023-01-28T15:50:58;14.18;;;8.88;;
44102;SDS011;29769;42.178;24.742;2023-01-28T15:53:55;13.30;;;8.63;;
44102;SDS011;29769;42.178;24.742;2023-01-28T15:56:42;11.32;;;8.82;;
44102;SDS011;29769;42.178;24.742;2023-01-28T15:59:28;11.27;;;9.23;;
44102;SDS011;29769;42.178;24.742;2023-01-28T16:02:18;11.10;;;7.82;;
44102;SDS011;29769;42.178;24.742;2023-01-28T16:05:05;13.23;;;9.57;;
44102;SDS011;29769;42.178;24.742;2023-01-28T16:07:54;15.02;;;9.50;;
44102;SDS011;29769;42.178;24.742;2023-01-28T16:10:40;15.50;;;9.98;;
44102;SDS011;29769;42.178;24.742;2023-01-28T16:13:26;14.00;;;9.45;;
44102;SDS011;29769;42.178;24.742;2023-01-28T16:16:13;12.93;;;8.95;;
44102;SDS011;29769;42.178;24.742;2023-01-28T16:21:44;15.98;;;9.93;;
44102;SDS011;29769;42.178;24.742;2023-01-28T16:27:25;9.60;;;7.15;;
44102;SDS011;29769;42.178;24.742;2023-01-28T16:30:11;7.97;;;6.50;;
44102;SDS011;29769;42.178;24.742;2023-01-28T16:32:57;7.32;;;5.25;;
44102;SDS011;29769;42.178;24.742;2023-01-28T16:38:26;7.30;;;5.47;;
44102;SDS011;29769;42.178;24.742;2023-01-28T16:41:12;6.82;;;5.45;;
44102;SDS011;29769;42.178;24.742;2023-01-28T16:44:02;8.70;;;5.38;;
44102;SDS011;29769;42.178;24.742;2023-01-28T16:46:49;8.95;;;5.60;;
44102;SDS011;29769;42.178;24.742;2023-01-28T16:49:34;6.07;;;5.28;;
44102;SDS011;29769;42.178;24.742;2023-01-28T16:52:19;9.23;;;6.47;;
44102;SDS011;29769;42.178;24.742;2023-01-28T16:55:03;6.90;;;5.72;;
44102;SDS011;29769;42.178;24.742;2023-01-28T16:57:49;8.98;;;6.10;;
44102;SDS011;29769;42.178;24.742;2023-01-28T17:00:36;9.13;;;6.82;;
44102;SDS011;29769;42.178;24.742;2023-01-28T17:03:22;8.50;;;6.50;;
44102;SDS011;29769;42.178;24.742;2023-01-28T17:06:08;10.32;;;7.53;;
44102;SDS011;29769;42.178;24.742;2023-01-28T17:08:58;10.98;;;7.82;;
44102;SDS011;29769;42.178;24.742;2023-01-28T17:11:43;14.43;;;8.45;;
44102;SDS011;29769;42.178;24.742;2023-01-28T17:14:27;12.57;;;8.63;;
44102;SDS011;29769;42.178;24.742;2023-01-28T17:17:12;10.80;;;7.60;;
44102;SDS011;29769;42.178;24.742;2023-01-28T17:19:57;11.50;;;7.95;;
44102;SDS011;29769;42.178;24.742;2023-01-28T17:22:42;11.88;;;7.82;;
44102;SDS011;29769;42.178;24.742;2023-01-28T17:28:12;11.85;;;8.30;;
44102;SDS011;29769;42.178;24.742;2023-01-28T17:30:57;15.32;;;9.07;;
44102;SDS011;29769;42.178;24.742;2023-01-28T17:33:42;12.07;;;7.85;;
44102;SDS011;29769;42.178;24.742;2023-01-28T17:36:27;11.65;;;7.95;;
44102;SDS011;29769;42.178;24.742;2023-01-28T17:39:11;11.90;;;7.78;;
44102;SDS011;29769;42.178;24.742;2023-01-28T17:41:56;10.75;;;7.07;;
44102;SDS011;29769;42.178;24.742;2023-01-28T17:44:41;14.38;;;7.20;;
44102;SDS011;29769;42.178;24.742;2023-01-28T17:47:26;16.52;;;9.05;;
44102;SDS011;29769;42.178;24.742;2023-01-28T17:50:11;15.25;;;8.35;;
44102;SDS011;29769;42.178;24.742;2023-01-28T17:52:56;16.73;;;8.93;;
44102;SDS011;29769;42.178;24.742;2023-01-28T17:58:26;13.48;;;8.85;;
44102;SDS011;29769;42.178;24.742;2023-01-28T18:01:11;15.43;;;8.98;;
44102;SDS011;29769;42.178;24.742;2023-01-28T18:03:56;14.30;;;9.48;;
44102;SDS011;29769;42.178;24.742;2023-01-28T18:06:41;12.80;;;9.43;;
44102;SDS011;29769;42.178;24.742;2023-01-28T18:09:26;10.65;;;8.38;;
44102;SDS011;29769;42.178;24.742;2023-01-28T18:12:12;11.95;;;8.38;;
44102;SDS011;29769;42.178;24.742;2023-01-28T18:14:58;13.57;;;8.75;;
44102;SDS011;29769;42.178;24.742;2023-01-28T18:17:43;11.25;;;9.00;;
44102;SDS011;29769;42.178;24.742;2023-01-28T18:20:28;13.68;;;8.48;;
44102;SDS011;29769;42.178;24.742;2023-01-28T18:25:58;14.52;;;9.55;;
44102;SDS011;29769;42.178;24.742;2023-01-28T18:28:45;15.48;;;9.77;;
44102;SDS011;29769;42.178;24.742;2023-01-28T18:31:30;15.40;;;9.60;;
44102;SDS011;29769;42.178;24.742;2023-01-28T18:34:15;15.60;;;10.48;;
44102;SDS011;29769;42.178;24.742;2023-01-28T18:37:01;13.60;;;9.20;;
44102;SDS011;29769;42.178;24.742;2023-01-28T18:39:47;14.15;;;9.32;;
44102;SDS011;29769;42.178;24.742;2023-01-28T18:42:32;15.18;;;9.25;;
44102;SDS011;29769;42.178;24.742;2023-01-28T18:45:16;12.20;;;8.27;;
44102;SDS011;29769;42.178;24.742;2023-01-28T18:48:01;11.43;;;8.45;;
44102;SDS011;29769;42.178;24.742;2023-01-28T18:50:50;17.13;;;9.15;;
44102;SDS011;29769;42.178;24.742;2023-01-28T18:53:36;12.80;;;8.48;;
44102;SDS011;29769;42.178;24.742;2023-01-28T18:56:21;12.48;;;8.95;;
44102;SDS011;29769;42.178;24.742;2023-01-28T18:59:06;12.15;;;8.68;;
44102;SDS011;29769;42.178;24.742;2023-01-28T19:01:54;12.27;;;9.55;;
44102;SDS011;29769;42.178;24.742;2023-01-28T19:04:38;14.45;;;9.45;;
44102;SDS011;29769;42.178;24.742;2023-01-28T19:07:23;13.80;;;9.45;;
44102;SDS011;29769;42.178;24.742;2023-01-28T19:10:08;13.32;;;9.90;;
44102;SDS011;29769;42.178;24.742;2023-01-28T19:12:53;14.43;;;8.88;;
44102;SDS011;29769;42.178;24.742;2023-01-28T19:15:38;14.20;;;9.13;;
44102;SDS011;29769;42.178;24.742;2023-01-28T19:18:23;14.88;;;10.05;;
44102;SDS011;29769;42.178;24.742;2023-01-28T19:21:08;13.05;;;9.63;;
44102;SDS011;29769;42.178;24.742;2023-01-28T19:23:57;15.55;;;9.95;;
44102;SDS011;29769;42.178;24.742;2023-01-28T19:26:54;14.15;;;9.45;;
44102;SDS011;29769;42.178;24.742;2023-01-28T19:29:39;13.43;;;9.43;;
44102;SDS011;29769;42.178;24.742;2023-01-28T19:32:24;14.23;;;9.90;;
44102;SDS011;29769;42.178;24.742;2023-01-28T19:37:54;15.02;;;10.15;;
44102;SDS011;29769;42.178;24.742;2023-01-28T19:40:39;15.65;;;9.68;;
44102;SDS011;29769;42.178;24.742;2023-01-28T19:43:26;15.57;;;9.77;;
44102;SDS011;29769;42.178;24.742;2023-01-28T19:46:12;16.80;;;10.60;;
44102;SDS011;29769;42.178;24.742;2023-01-28T19:48:59;14.10;;;10.65;;
44102;SDS011;29769;42.178;24.742;2023-01-28T19:51:44;16.40;;;9.95;;
44102;SDS011;29769;42.178;24.742;2023-01-28T19:54:28;16.58;;;11.05;;
44102;SDS011;29769;42.178;24.742;2023-01-28T19:57:13;14.85;;;11.15;;
44102;SDS011;29769;42.178;24.742;2023-01-28T19:59:58;15.50;;;10.07;;